createdAt,value
2023-03-29T00:00:38.298Z,5.2805
2023-03-29T00:02:41.472Z,5.2934
2023-03-29T00:03:43.047Z,5.2969
2023-03-29T00:04:43.004Z,5.2970
2023-03-29T00:05:43.039Z,5.2944
2023-03-29T00:06:43.049Z,5.2899
2023-03-29T00:07:44.268Z,5.2833
2023-03-29T00:08:44.394Z,5.2753
2023-03-29T00:09:45.642Z,5.2686
2023-03-29T00:10:45.732Z,5.2595
2023-03-29T00:11:46.953Z,5.2501
2023-03-29T00:12:48.283Z,5.2428
2023-03-29T00:13:49.526Z,5.2360
2023-03-29T00:14:50.929Z,5.2314
2023-03-29T00:15:52.111Z,5.2290
2023-03-29T00:16:53.690Z,5.2275
2023-03-29T00:17:55.082Z,5.2284
2023-03-29T00:18:55.172Z,5.2310
2023-03-29T00:19:56.427Z,5.2348
2023-03-29T00:20:57.813Z,5.2408
2023-03-29T00:21:59.037Z,5.2480
2023-03-29T00:22:59.476Z,5.2551
2023-03-29T00:24:00.674Z,5.2599
2023-03-29T00:25:00.714Z,5.2659
2023-03-29T00:26:02.031Z,5.2738
2023-03-29T00:27:03.565Z,5.2823
2023-03-29T00:28:04.854Z,5.2895
2023-03-29T00:29:06.219Z,5.2923
2023-03-29T00:30:07.429Z,5.2943
2023-03-29T00:31:08.898Z,5.2957
2023-03-29T00:32:10.207Z,5.2949
2023-03-29T00:33:10.357Z,5.2946
2023-03-29T00:34:11.622Z,5.2933
2023-03-29T00:35:11.631Z,5.2920
2023-03-29T00:36:12.907Z,5.2907
2023-03-29T00:37:12.974Z,5.2890
2023-03-29T00:38:14.181Z,5.2886
2023-03-29T00:39:15.492Z,5.2873
2023-03-29T00:40:16.803Z,5.2837
2023-03-29T00:41:17.186Z,5.2801
2023-03-29T00:42:18.386Z,5.2759
2023-03-29T00:43:18.479Z,5.2692
2023-03-29T00:44:19.791Z,5.2613
2023-03-29T00:45:21.228Z,5.2558
2023-03-29T00:46:22.659Z,5.2549
2023-03-29T00:47:22.957Z,5.2575
2023-03-29T00:48:24.369Z,5.2632
2023-03-29T00:49:24.369Z,5.2676
2023-03-29T00:50:25.571Z,5.2743
2023-03-29T00:51:26.956Z,5.2790
2023-03-29T00:52:28.231Z,5.2796
2023-03-29T00:53:29.679Z,5.2779
2023-03-29T00:54:30.959Z,5.2725
2023-03-29T00:55:32.392Z,5.2631
2023-03-29T00:56:32.488Z,5.2527
2023-03-29T00:57:34.012Z,5.2440
2023-03-29T00:58:35.246Z,5.2380
2023-03-29T00:59:36.724Z,5.2372
2023-03-29T01:00:38.048Z,5.2374
2023-03-29T01:01:38.179Z,5.2360
2023-03-29T01:02:38.456Z,5.2335
2023-03-29T01:03:40.163Z,5.2327
2023-03-29T01:04:41.444Z,5.2343
2023-03-29T01:05:42.750Z,5.2394
2023-03-29T01:06:43.864Z,5.2507
2023-03-29T01:07:44.524Z,5.2665
2023-03-29T01:08:45.745Z,5.2827
2023-03-29T01:09:45.852Z,5.3006
2023-03-29T01:10:47.126Z,5.3208
2023-03-29T01:11:48.483Z,5.3419
2023-03-29T01:12:49.715Z,5.3627
2023-03-29T01:13:51.205Z,5.3834
2023-03-29T01:14:52.484Z,5.4019
2023-03-29T01:15:53.932Z,5.4159
2023-03-29T01:16:55.338Z,5.4251
2023-03-29T01:17:55.683Z,5.4331
2023-03-29T01:18:55.798Z,5.4372
2023-03-29T01:29:06.493Z,5.4944
2023-03-29T01:30:07.869Z,5.4972
2023-03-29T01:31:09.164Z,5.4993
2023-03-29T01:32:09.230Z,5.5019
2023-03-29T01:33:10.549Z,5.5041
2023-03-29T01:34:11.913Z,5.5054
2023-03-29T01:35:11.990Z,5.5053
2023-03-29T01:36:13.538Z,5.5047
2023-03-29T01:37:14.756Z,5.5039
2023-03-29T01:38:16.127Z,5.5030
2023-03-29T01:39:17.396Z,5.5018
2023-03-29T01:40:18.736Z,5.4998
2023-03-29T01:41:20.038Z,5.4973
2023-03-29T01:42:21.529Z,5.4945
2023-03-29T01:43:23.553Z,5.4940
2023-03-29T01:44:23.385Z,5.4919
2023-03-29T01:45:24.715Z,5.4916
2023-03-29T01:46:24.817Z,5.4923
2023-03-29T01:47:24.892Z,5.4942
2023-03-29T01:48:26.106Z,5.4955
2023-03-29T01:49:27.413Z,5.4954
2023-03-29T01:50:28.627Z,5.4936
2023-03-29T01:51:29.950Z,5.4907
2023-03-29T01:52:31.202Z,5.4894
2023-03-29T01:53:31.245Z,5.4894
2023-03-29T01:54:32.612Z,5.4889
2023-03-29T02:04:41.706Z,5.4982
2023-03-29T02:05:41.763Z,5.4994
2023-03-29T02:06:42.986Z,5.5004
2023-03-29T02:07:44.301Z,5.5019
2023-03-29T02:08:45.526Z,5.5027
2023-03-29T02:09:45.589Z,5.5015
2023-03-29T02:10:45.714Z,5.5012
2023-03-29T02:11:47.163Z,5.5048
2023-03-29T02:12:48.534Z,5.5098
2023-03-29T02:13:48.471Z,5.5142
2023-03-29T02:14:48.550Z,5.5143
2023-03-29T02:15:50.041Z,5.5114
2023-03-29T02:16:50.082Z,5.5133
2023-03-29T02:17:51.428Z,5.5140
2023-03-29T02:18:51.702Z,5.5172
2023-03-29T02:19:53.069Z,5.5182
2023-03-29T02:20:53.159Z,5.5243
2023-03-29T02:21:53.144Z,5.5324
2023-03-29T02:22:54.438Z,5.5365
2023-03-29T02:28:59.466Z,5.5397
2023-03-29T02:29:59.500Z,5.5408
2023-03-29T02:31:01.045Z,5.5427
2023-03-29T02:32:01.704Z,5.5444
2023-03-29T02:33:01.777Z,5.5473
2023-03-29T02:34:01.870Z,5.5476
2023-03-29T02:35:01.908Z,5.5469
2023-03-29T02:36:02.023Z,5.5465
2023-03-29T02:37:02.130Z,5.5484
2023-03-29T02:38:03.530Z,5.5497
2023-03-29T02:39:03.684Z,5.5525
2023-03-29T02:40:04.986Z,5.5564
2023-03-29T02:41:06.493Z,5.5631
2023-03-29T02:42:07.785Z,5.5711
2023-03-29T02:44:09.035Z,5.5809
2023-03-29T02:45:10.376Z,5.5816
2023-03-29T02:46:10.472Z,5.5830
2023-03-29T02:47:10.558Z,5.5811
2023-03-29T02:48:10.669Z,5.5767
2023-03-29T02:49:12.038Z,5.5697
2023-03-29T02:50:13.702Z,5.5643
2023-03-29T02:51:15.916Z,5.5569
2023-03-29T02:52:15.922Z,5.5487
2023-03-29T02:53:15.955Z,5.5415
2023-03-29T02:54:17.338Z,5.5343
2023-03-29T02:55:17.423Z,5.5270
2023-03-29T02:56:18.638Z,5.5252
2023-03-29T02:57:20.221Z,5.5249
2023-03-29T02:58:20.236Z,5.5261
2023-03-29T02:59:21.580Z,5.5280
2023-03-29T03:00:21.672Z,5.5289
2023-03-29T03:01:23.092Z,5.5295
2023-03-29T03:02:23.335Z,5.5271
2023-03-29T03:03:23.954Z,5.5231
2023-03-29T03:04:24.308Z,5.5199
2023-03-29T03:05:25.614Z,5.5173
2023-03-29T03:06:25.752Z,5.5134
2023-03-29T03:07:27.024Z,5.5090
2023-03-29T03:09:29.787Z,5.5073
2023-03-29T03:11:31.124Z,5.5058
2023-03-29T03:12:31.477Z,5.5049
2023-03-29T03:13:32.753Z,5.5041
2023-03-29T03:14:33.101Z,5.5054
2023-03-29T03:15:34.401Z,5.5083
2023-03-29T03:16:34.865Z,5.5095
2023-03-29T03:17:34.856Z,5.5093
2023-03-29T03:18:36.149Z,5.5094
2023-03-29T03:19:36.286Z,5.5085
2023-03-29T03:20:37.553Z,5.5071
2023-03-29T03:21:38.538Z,5.5054
2023-03-29T03:22:39.867Z,5.5011
2023-03-29T03:23:39.981Z,5.4940
2023-03-29T03:27:42.479Z,5.4765
2023-03-29T03:28:42.539Z,5.4728
2023-03-29T03:29:43.922Z,5.4704
2023-03-29T03:30:44.086Z,5.4684
2023-03-29T03:31:44.191Z,5.4697
2023-03-29T03:32:44.304Z,5.4790
2023-03-29T03:33:45.638Z,5.4921
2023-03-29T03:34:47.182Z,5.5069
2023-03-29T03:35:48.512Z,5.5251
2023-03-29T03:36:48.633Z,5.5373
2023-03-29T03:37:49.942Z,5.5447
2023-03-29T03:38:51.442Z,5.5492
2023-03-29T03:39:52.731Z,5.5493
2023-03-29T03:41:55.400Z,5.5453
2023-03-29T03:42:55.759Z,5.5455
2023-03-29T03:43:56.277Z,5.5473
2023-03-29T03:44:56.324Z,5.5476
2023-03-29T03:45:56.586Z,5.5454
2023-03-29T03:46:57.090Z,5.5421
2023-03-29T03:47:57.200Z,5.5395
2023-03-29T03:48:57.383Z,5.5367
2023-03-29T03:49:57.417Z,5.5306
2023-03-29T03:50:57.441Z,5.5230
2023-03-29T03:51:58.788Z,5.5130
2023-03-29T03:52:58.928Z,5.5042
2023-03-29T03:54:00.250Z,5.4948
2023-03-29T03:55:01.789Z,5.4837
2023-03-29T03:56:03.148Z,5.4737
2023-03-29T03:57:04.825Z,5.4659
2023-03-29T03:58:06.109Z,5.4581
2023-03-29T03:59:06.341Z,5.4513
2023-03-29T04:00:07.692Z,5.4449
2023-03-29T04:01:07.680Z,5.4408
2023-03-29T04:02:07.824Z,5.4418
2023-03-29T04:03:08.093Z,5.4493
2023-03-29T04:04:09.167Z,5.4625
2023-03-29T04:05:09.459Z,5.4783
2023-03-29T04:06:09.495Z,5.4930
2023-03-29T04:07:10.744Z,5.5046
2023-03-29T04:08:12.158Z,5.5149
2023-03-29T04:09:13.480Z,5.5310
2023-03-29T04:10:13.640Z,5.5441
2023-03-29T04:11:14.909Z,5.5562
2023-03-29T04:12:15.031Z,5.5635
2023-03-29T04:13:16.337Z,5.5675
2023-03-29T04:14:17.840Z,5.5760
2023-03-29T04:15:17.855Z,5.5885
2023-03-29T04:16:18.067Z,5.5991
2023-03-29T04:17:18.189Z,5.6085
2023-03-29T04:18:18.770Z,5.6183
2023-03-29T04:19:20.085Z,5.6305
2023-03-29T04:20:20.389Z,5.6406
2023-03-29T04:21:21.659Z,5.6464
2023-03-29T04:22:21.915Z,5.6508
2023-03-29T04:34:35.111Z,5.7938
2023-03-29T04:35:35.523Z,5.7994
2023-03-29T04:36:36.744Z,5.8035
2023-03-29T04:37:38.372Z,5.8080
2023-03-29T04:38:38.367Z,5.8108
2023-03-29T04:39:38.593Z,5.8077
2023-03-29T04:40:38.681Z,5.8069
2023-03-29T04:41:40.040Z,5.8056
2023-03-29T04:42:40.082Z,5.8014
2023-03-29T04:43:41.452Z,5.7962
2023-03-29T04:44:42.981Z,5.7908
2023-03-29T04:45:43.017Z,5.7865
2023-03-29T04:46:43.247Z,5.7871
2023-03-29T04:47:43.281Z,5.7898
2023-03-29T04:48:43.308Z,5.7894
2023-03-29T04:49:43.433Z,5.7807
2023-03-29T04:50:44.674Z,5.7662
2023-03-29T04:51:44.998Z,5.7550
2023-03-29T04:52:46.546Z,5.7565
2023-03-29T04:53:46.669Z,5.7811
2023-03-29T04:54:47.978Z,5.8122
2023-03-29T04:55:48.089Z,5.8511
2023-03-29T04:56:49.431Z,5.8974
2023-03-29T04:57:49.512Z,5.9502
2023-03-29T04:58:50.772Z,6.0060
2023-03-29T04:59:52.113Z,6.0679
2023-03-29T05:00:52.280Z,6.1243
2023-03-29T05:01:52.348Z,6.1790
2023-03-29T05:02:52.650Z,6.2203
2023-03-29T05:03:52.761Z,6.2480
2023-03-29T05:04:53.157Z,6.2666
2023-03-29T05:05:53.240Z,6.2779
2023-03-29T05:06:53.422Z,6.2839
2023-03-29T05:07:54.833Z,6.2889
2023-03-29T05:08:55.226Z,6.3009
2023-03-29T05:09:55.460Z,6.3041
2023-03-29T05:10:55.773Z,6.3017
2023-03-29T05:11:55.983Z,6.2963
2023-03-29T05:12:56.097Z,6.2838
2023-03-29T05:13:56.218Z,6.2719
2023-03-29T05:14:56.463Z,6.2585
2023-03-29T05:15:57.360Z,6.2389
2023-03-29T05:16:57.594Z,6.2155
2023-03-29T05:17:58.186Z,6.1977
2023-03-29T05:18:58.585Z,6.1898
2023-03-29T05:19:59.171Z,6.1967
2023-03-29T05:20:59.878Z,6.2174
2023-03-29T05:22:00.594Z,6.2452
2023-03-29T05:23:00.642Z,6.2734
2023-03-29T05:24:01.941Z,6.3028
2023-03-29T05:25:02.110Z,6.3252
2023-03-29T05:26:03.451Z,6.3384
2023-03-29T05:27:03.610Z,6.3497
2023-03-29T05:28:03.679Z,6.3658
2023-03-29T05:29:03.640Z,6.3823
2023-03-29T05:30:03.777Z,6.4015
2023-03-29T05:31:04.273Z,6.4210
2023-03-29T05:32:04.853Z,6.4391
2023-03-29T05:33:04.885Z,6.4561
2023-03-29T05:34:06.363Z,6.4797
2023-03-29T05:35:06.472Z,6.5050
2023-03-29T05:36:06.823Z,6.5320
2023-03-29T05:37:07.086Z,6.5621
2023-03-29T05:38:07.248Z,6.5899
2023-03-29T05:39:07.323Z,6.6154
2023-03-29T05:40:08.127Z,6.6383
2023-03-29T05:41:09.284Z,6.6644
2023-03-29T05:42:09.579Z,6.7033
2023-03-29T05:43:09.458Z,6.7419
2023-03-29T05:44:09.624Z,6.7806
2023-03-29T05:46:10.862Z,6.8703
2023-03-29T05:47:11.214Z,6.9144
2023-03-29T05:48:11.290Z,6.9534
2023-03-29T05:49:11.546Z,6.9897
2023-03-29T05:50:11.678Z,7.0240
2023-03-29T05:51:12.552Z,7.0524
2023-03-29T05:52:12.717Z,7.0834
2023-03-29T05:53:12.874Z,7.1190
2023-03-29T05:54:14.248Z,7.1573
2023-03-29T05:55:14.381Z,7.1935
2023-03-29T05:56:14.494Z,7.2222
2023-03-29T05:57:14.706Z,7.2460
2023-03-29T05:58:14.870Z,7.2659
2023-03-29T05:59:15.033Z,7.2840
2023-03-29T06:00:15.058Z,7.3002
2023-03-29T06:01:15.810Z,7.3164
2023-03-29T06:02:15.952Z,7.3349
2023-03-29T06:03:22.553Z,7.3506
2023-03-29T06:04:23.155Z,7.3652
2023-03-29T06:05:23.331Z,7.3818
2023-03-29T06:06:24.783Z,7.3964
2023-03-29T06:07:24.939Z,7.4119
2023-03-29T06:08:25.071Z,7.4258
2023-03-29T06:09:25.355Z,7.4395
2023-03-29T06:16:29.731Z,7.5591
2023-03-29T06:17:30.226Z,7.5941
2023-03-29T06:18:30.814Z,7.6373
2023-03-29T06:19:30.843Z,7.6903
2023-03-29T06:20:30.931Z,7.7542
2023-03-29T06:21:31.127Z,7.8339
2023-03-29T06:22:32.498Z,7.9237
2023-03-29T06:23:32.572Z,8.0245
2023-03-29T06:24:33.023Z,8.1239
2023-03-29T06:25:34.114Z,8.2250
2023-03-29T06:26:34.399Z,8.3227
2023-03-29T06:27:34.497Z,8.4122
2023-03-29T06:28:34.540Z,8.4891
2023-03-29T06:29:34.786Z,8.5515
2023-03-29T06:30:35.747Z,8.6036
2023-03-29T06:31:36.531Z,8.6483
2023-03-29T06:32:36.874Z,8.6793
2023-03-29T06:33:37.047Z,8.7050
2023-03-29T06:34:38.576Z,8.7336
2023-03-29T06:35:37.599Z,8.7722
2023-03-29T06:36:37.692Z,8.8109
2023-03-29T06:37:37.910Z,8.8499
2023-03-29T06:38:37.927Z,8.8871
2023-03-29T06:39:38.173Z,8.9165
2023-03-29T06:40:38.203Z,8.9398
2023-03-29T06:41:38.231Z,8.9589
2023-03-29T06:42:38.379Z,8.9782
2023-03-29T06:43:38.393Z,8.9944
2023-03-29T06:44:38.414Z,9.0074
2023-03-29T06:45:38.668Z,9.0156
2023-03-29T06:46:39.019Z,9.0239
2023-03-29T06:47:39.086Z,9.0309
2023-03-29T06:48:39.362Z,9.0355
2023-03-29T06:49:39.387Z,9.0378
2023-03-29T06:50:39.493Z,9.0384
2023-03-29T06:51:39.532Z,9.0443
2023-03-29T06:52:39.731Z,9.0601
2023-03-29T06:53:41.104Z,9.0825
2023-03-29T06:54:41.260Z,9.1173
2023-03-29T06:55:41.661Z,9.1594
2023-03-29T06:56:43.121Z,9.2089
2023-03-29T06:57:43.635Z,9.2601
2023-03-29T06:58:43.681Z,9.3108
2023-03-29T06:59:43.955Z,9.3460
2023-03-29T07:00:44.403Z,9.3705
2023-03-29T07:01:44.854Z,9.3862
2023-03-29T07:02:44.906Z,9.4012
2023-03-29T07:03:46.732Z,9.4253
2023-03-29T07:04:47.149Z,9.4637
2023-03-29T07:05:47.428Z,9.5125
2023-03-29T07:06:47.476Z,9.5629
2023-03-29T07:07:47.764Z,9.6086
2023-03-29T07:08:47.956Z,9.6495
2023-03-29T07:09:48.006Z,9.6843
2023-03-29T07:10:48.121Z,9.7153
2023-03-29T07:11:48.332Z,9.7310
2023-03-29T07:12:48.516Z,9.7271
2023-03-29T07:13:49.043Z,9.7160
2023-03-29T07:14:49.124Z,9.7050
2023-03-29T07:15:49.242Z,9.7021
2023-03-29T07:16:49.326Z,9.7071
2023-03-29T07:17:49.548Z,9.7184
2023-03-29T07:18:49.565Z,9.7343
2023-03-29T07:19:49.636Z,9.7613
2023-03-29T07:20:49.815Z,9.7982
2023-03-29T07:21:49.852Z,9.8528
2023-03-29T07:22:49.862Z,9.9337
2023-03-29T07:23:50.079Z,10.0387
2023-03-29T07:24:50.085Z,10.1592
2023-03-29T07:25:50.114Z,10.2893
2023-03-29T07:27:03.261Z,10.4144
2023-03-29T07:27:50.684Z,10.5317
2023-03-29T07:28:50.730Z,10.6263
2023-03-29T07:29:50.877Z,10.6867
2023-03-29T07:30:51.569Z,10.7281
2023-03-29T07:31:51.778Z,10.7488
2023-03-29T07:32:52.234Z,10.7553
2023-03-29T07:33:53.332Z,10.7551
2023-03-29T07:34:53.446Z,10.7528
2023-03-29T07:35:53.518Z,10.7466
2023-03-29T07:36:53.781Z,10.7406
2023-03-29T07:37:53.781Z,10.7435
2023-03-29T07:38:56.301Z,10.7560
2023-03-29T07:39:55.289Z,10.7805
2023-03-29T07:40:55.504Z,10.8126
2023-03-29T07:41:55.532Z,10.8475
2023-03-29T07:42:55.561Z,10.8871
2023-03-29T07:43:55.718Z,10.9347
2023-03-29T07:44:55.734Z,10.9802
2023-03-29T07:45:55.989Z,11.0198
2023-03-29T07:46:56.170Z,11.0550
2023-03-29T07:47:56.478Z,11.0899
2023-03-29T07:48:56.658Z,11.1382
2023-03-29T07:49:57.000Z,11.2021
2023-03-29T07:50:57.082Z,11.2720
2023-03-29T07:51:57.848Z,11.3455
2023-03-29T07:52:58.126Z,11.4304
2023-03-29T07:53:58.255Z,11.5166
2023-03-29T07:54:58.495Z,11.6006
2023-03-29T07:55:58.590Z,11.6795
2023-03-29T07:56:58.826Z,11.7510
2023-03-29T07:57:59.167Z,11.8103
2023-03-29T07:58:59.321Z,11.8698
2023-03-29T07:59:59.548Z,11.9421
2023-03-29T08:00:59.772Z,12.0229
2023-03-29T08:02:00.918Z,12.1073
2023-03-29T08:03:01.040Z,12.1868
2023-03-29T08:04:01.414Z,12.2695
2023-03-29T08:05:01.983Z,12.3485
2023-03-29T08:06:02.585Z,12.4139
2023-03-29T08:07:02.730Z,12.4819
2023-03-29T08:08:02.830Z,12.5588
2023-03-29T08:09:03.122Z,12.6322
2023-03-29T08:10:03.314Z,12.6974
2023-03-29T08:11:03.687Z,12.7267
2023-03-29T08:12:04.020Z,12.7392
2023-03-29T08:13:04.089Z,12.7408
2023-03-29T08:14:04.248Z,12.7171
2023-03-29T08:15:04.432Z,12.6776
2023-03-29T08:16:04.842Z,12.6330
2023-03-29T08:17:05.130Z,12.5947
2023-03-29T08:18:05.904Z,12.5527
2023-03-29T08:19:06.711Z,12.5085
2023-03-29T08:20:07.307Z,12.4756
2023-03-29T08:21:07.901Z,12.4574
2023-03-29T08:22:07.924Z,12.4521
2023-03-29T08:23:08.234Z,12.4625
2023-03-29T08:24:08.507Z,12.4851
2023-03-29T08:25:09.779Z,12.5078
2023-03-29T08:26:09.924Z,12.5226
2023-03-29T08:27:10.251Z,12.5160
2023-03-29T08:28:10.387Z,12.4973
2023-03-29T08:29:10.485Z,12.4809
2023-03-29T08:30:10.742Z,12.4785
2023-03-29T08:31:11.417Z,12.5074
2023-03-29T08:32:11.654Z,12.5795
2023-03-29T08:33:12.058Z,12.6807
2023-03-29T08:34:12.501Z,12.8074
2023-03-29T08:35:12.715Z,12.9511
2023-03-29T08:36:13.044Z,13.0899
2023-03-29T08:37:13.140Z,13.2074
2023-03-29T08:38:13.333Z,13.3034
2023-03-29T08:39:13.646Z,13.3908
2023-03-29T08:40:13.712Z,13.4824
2023-03-29T08:41:14.553Z,13.5894
2023-03-29T08:42:14.585Z,13.7095
2023-03-29T08:43:14.662Z,13.8616
2023-03-29T08:44:14.938Z,14.0609
2023-03-29T08:45:15.006Z,14.2839
2023-03-29T08:46:15.317Z,14.5128
2023-03-29T08:47:16.202Z,14.7336
2023-03-29T08:48:16.663Z,14.9125
2023-03-29T08:49:16.830Z,15.0698
2023-03-29T08:50:16.952Z,15.1954
2023-03-29T08:51:18.016Z,15.3059
2023-03-29T08:52:18.174Z,15.3893
2023-03-29T08:53:19.409Z,15.4550
2023-03-29T08:54:19.569Z,15.5114
2023-03-29T08:55:19.904Z,15.5903
2023-03-29T08:56:20.051Z,15.6859
2023-03-29T08:57:20.710Z,15.7849
2023-03-29T08:58:20.860Z,15.9018
2023-03-29T08:59:21.318Z,16.0492
2023-03-29T09:00:21.406Z,16.1960
2023-03-29T09:01:21.521Z,16.3350
2023-03-29T09:02:21.979Z,16.4496
2023-03-29T09:03:22.492Z,16.5596
2023-03-29T09:04:22.781Z,16.6737
2023-03-29T09:05:22.947Z,16.7584
2023-03-29T09:06:23.212Z,16.8087
2023-03-29T09:07:26.463Z,16.8472
2023-03-29T09:08:24.041Z,16.8977
2023-03-29T09:09:25.004Z,16.9608
2023-03-29T09:10:25.210Z,17.0361
2023-03-29T09:11:25.512Z,17.1104
2023-03-29T09:12:25.612Z,17.1674
2023-03-29T09:13:25.935Z,17.2148
2023-03-29T09:14:26.091Z,17.2415
2023-03-29T09:15:26.395Z,17.2557
2023-03-29T09:16:26.486Z,17.2760
2023-03-29T09:17:27.128Z,17.3006
2023-03-29T09:18:27.464Z,17.3211
2023-03-29T09:19:27.659Z,17.3319
2023-03-29T09:20:28.010Z,17.3406
2023-03-29T09:21:28.217Z,17.3435
2023-03-29T09:22:28.297Z,17.3333
2023-03-29T09:23:28.542Z,17.3282
2023-03-29T09:24:28.881Z,17.3277
2023-03-29T09:25:29.094Z,17.3207
2023-03-29T09:26:29.490Z,17.3064
2023-03-29T09:27:29.750Z,17.2788
2023-03-29T09:28:29.907Z,17.2366
2023-03-29T09:29:31.238Z,17.1938
2023-03-29T09:30:31.372Z,17.1487
2023-03-29T09:31:31.817Z,17.0691
2023-03-29T09:32:31.961Z,16.9650
2023-03-29T09:33:32.216Z,16.8449
2023-03-29T09:34:32.324Z,16.7152
2023-03-29T09:35:32.463Z,16.5607
2023-03-29T09:36:32.758Z,16.3930
2023-03-29T09:37:32.869Z,16.2272
2023-03-29T09:38:33.221Z,16.0722
2023-03-29T09:39:33.237Z,15.9225
2023-03-29T09:40:33.359Z,15.7807
2023-03-29T09:41:33.603Z,15.6546
2023-03-29T09:42:33.717Z,15.5479
2023-03-29T09:43:33.768Z,15.4542
2023-03-29T09:44:33.976Z,15.3792
2023-03-29T09:45:34.121Z,15.3220
2023-03-29T09:46:34.520Z,15.2800
2023-03-29T09:47:34.658Z,15.2408
2023-03-29T09:48:35.251Z,15.2159
2023-03-29T09:49:35.356Z,15.2090
2023-03-29T09:50:35.918Z,15.2256
2023-03-29T09:51:36.007Z,15.2816
2023-03-29T09:52:36.315Z,15.3719
2023-03-29T09:53:36.485Z,15.4828
2023-03-29T09:54:36.809Z,15.5955
2023-03-29T09:55:37.073Z,15.7023
2023-03-29T09:56:37.338Z,15.8013
2023-03-29T09:57:37.525Z,15.9036
2023-03-29T09:58:37.894Z,16.0273
2023-03-29T09:59:38.017Z,16.1886
2023-03-29T10:00:38.141Z,16.3787
2023-03-29T10:01:38.794Z,16.5914
2023-03-29T10:02:39.302Z,16.7984
2023-03-29T10:03:39.529Z,16.9747
2023-03-29T10:04:39.994Z,17.1262
2023-03-29T10:05:40.122Z,17.2678
2023-03-29T10:06:40.214Z,17.4015
2023-03-29T10:07:40.434Z,17.5453
2023-03-29T10:08:41.838Z,17.7093
2023-03-29T10:09:42.152Z,17.8932
2023-03-29T10:10:42.567Z,18.0950
2023-03-29T10:11:42.893Z,18.2934
2023-03-29T10:12:43.265Z,18.5104
2023-03-29T10:13:43.366Z,18.7389
2023-03-29T10:14:43.532Z,18.9421
2023-03-29T10:15:44.550Z,19.1474
2023-03-29T10:16:44.775Z,19.3602
2023-03-29T10:17:45.143Z,19.5530
2023-03-29T10:18:45.370Z,19.7307
2023-03-29T10:19:45.650Z,19.8810
2023-03-29T10:20:45.854Z,20.0397
2023-03-29T10:21:46.156Z,20.2449
2023-03-29T10:22:46.300Z,20.5072
2023-03-29T10:23:46.763Z,20.7474
2023-03-29T10:24:46.862Z,20.9421
2023-03-29T10:25:47.135Z,21.0515
2023-03-29T10:26:47.320Z,21.0917
2023-03-29T10:27:47.827Z,21.0837
2023-03-29T10:28:48.049Z,21.0558
2023-03-29T10:29:48.413Z,21.0547
2023-03-29T10:30:48.690Z,21.1056
2023-03-29T10:31:49.257Z,21.1962
2023-03-29T10:32:49.804Z,21.3104
2023-03-29T10:33:50.038Z,21.4173
2023-03-29T10:34:50.515Z,21.5283
2023-03-29T10:35:50.738Z,21.6956
2023-03-29T10:36:51.103Z,21.9034
2023-03-29T10:37:51.581Z,22.1476
2023-03-29T10:38:52.004Z,22.4631
2023-03-29T10:39:52.292Z,22.8317
2023-03-29T10:40:52.723Z,23.1217
2023-03-29T10:41:53.114Z,23.4682
2023-03-29T10:42:53.226Z,23.8146
2023-03-29T10:43:54.376Z,24.0654
2023-03-29T10:44:54.835Z,24.1125
2023-03-29T10:45:55.522Z,24.0214
2023-03-29T10:46:56.782Z,23.8910
2023-03-29T10:47:57.117Z,23.7805
2023-03-29T10:48:57.520Z,23.6509
2023-03-29T10:49:58.652Z,23.4829
2023-03-29T10:50:59.032Z,23.3751
2023-03-29T10:51:59.219Z,23.4736
2023-03-29T10:52:59.806Z,23.6020
2023-03-29T10:54:00.048Z,23.6644
2023-03-29T10:55:00.563Z,23.6862
2023-03-29T10:56:00.757Z,23.6754
2023-03-29T10:57:01.139Z,23.6411
2023-03-29T10:58:01.588Z,23.5686
2023-03-29T10:59:01.811Z,23.4559
2023-03-29T11:00:02.265Z,23.2963
2023-03-29T11:01:02.778Z,23.0602
2023-03-29T11:02:03.539Z,22.7350
2023-03-29T11:03:04.236Z,22.3602
2023-03-29T11:04:05.488Z,21.9663
2023-03-29T11:05:06.067Z,21.5987
2023-03-29T11:06:06.441Z,21.2903
2023-03-29T11:07:06.858Z,21.0331
2023-03-29T11:08:07.086Z,20.8357
2023-03-29T11:09:07.440Z,20.7067
2023-03-29T11:10:07.870Z,20.6266
2023-03-29T11:11:08.348Z,20.6070
2023-03-29T11:12:15.583Z,20.6537
2023-03-29T11:13:09.668Z,20.7901
2023-03-29T11:14:10.476Z,20.9663
2023-03-29T11:15:10.662Z,21.2059
2023-03-29T11:16:11.089Z,21.4297
2023-03-29T11:17:11.330Z,21.6125
2023-03-29T11:18:11.722Z,21.7892
2023-03-29T11:19:12.106Z,21.9658
2023-03-29T11:20:12.530Z,22.1449
2023-03-29T11:21:12.928Z,22.2913
2023-03-29T11:22:13.101Z,22.4172
2023-03-29T11:23:13.506Z,22.4701
2023-03-29T11:24:13.708Z,22.4944
2023-03-29T11:25:14.124Z,22.5152
2023-03-29T11:26:14.490Z,22.5477
2023-03-29T11:27:14.704Z,22.5349
2023-03-29T11:28:15.133Z,22.5182
2023-03-29T11:29:15.289Z,22.4952
2023-03-29T11:30:15.950Z,22.5193
2023-03-29T11:31:16.793Z,22.6093
2023-03-29T11:32:17.112Z,22.6881
2023-03-29T11:33:18.039Z,22.7039
2023-03-29T11:34:18.301Z,22.6876
2023-03-29T11:35:18.678Z,22.6520
2023-03-29T11:36:19.200Z,22.6419
2023-03-29T11:37:19.416Z,22.7062
2023-03-29T11:38:19.940Z,22.8569
2023-03-29T11:39:20.404Z,23.0001
2023-03-29T11:40:20.691Z,22.9949
2023-03-29T11:41:21.109Z,23.1069
2023-03-29T11:42:21.317Z,23.3075
2023-03-29T11:43:21.629Z,23.5000
2023-03-29T11:44:22.008Z,23.6600
2023-03-29T11:45:22.255Z,23.7231
2023-03-29T11:46:22.847Z,23.7651
2023-03-29T11:47:23.511Z,23.7656
2023-03-29T11:48:24.112Z,23.7033
2023-03-29T11:49:24.546Z,23.6795
2023-03-29T11:50:25.975Z,23.6633
2023-03-29T11:51:26.154Z,23.5677
2023-03-29T11:52:26.509Z,23.6582
2023-03-29T11:53:26.769Z,23.7852
2023-03-29T11:54:27.164Z,23.8262
2023-03-29T11:55:27.979Z,23.7926
2023-03-29T11:56:28.253Z,23.6865
2023-03-29T11:57:28.809Z,23.5438
2023-03-29T11:58:29.373Z,23.3582
2023-03-29T11:59:29.667Z,23.1412
2023-03-29T12:00:30.039Z,23.0819
2023-03-29T12:01:30.484Z,23.1900
2023-03-29T12:02:31.249Z,23.2387
2023-03-29T12:03:31.911Z,23.2481
2023-03-29T12:04:33.120Z,23.2513
2023-03-29T12:05:33.531Z,23.2747
2023-03-29T12:06:33.786Z,23.3966
2023-03-29T12:07:34.205Z,23.7224
2023-03-29T12:08:34.539Z,24.0416
2023-03-29T12:09:34.731Z,24.1840
2023-03-29T12:10:35.177Z,24.1811
2023-03-29T12:11:35.352Z,24.1388
2023-03-29T12:12:36.280Z,24.0699
2023-03-29T12:13:36.669Z,23.9744
2023-03-29T12:14:37.348Z,23.8122
2023-03-29T12:15:37.791Z,23.6087
2023-03-29T12:16:38.104Z,23.4316
2023-03-29T12:17:38.739Z,23.2818
2023-03-29T12:18:39.691Z,23.1308
2023-03-29T12:19:42.658Z,22.9580
2023-03-29T12:20:41.183Z,22.7754
2023-03-29T12:21:42.065Z,22.6034
2023-03-29T12:22:42.531Z,22.4113
2023-03-29T12:23:42.711Z,22.1915
2023-03-29T12:24:43.064Z,21.9645
2023-03-29T12:25:43.669Z,21.7242
2023-03-29T12:26:43.927Z,21.4649
2023-03-29T12:27:44.286Z,21.2065
2023-03-29T12:28:44.651Z,20.9865
2023-03-29T12:29:44.954Z,20.8211
2023-03-29T12:30:45.358Z,20.7037
2023-03-29T12:31:45.868Z,20.6361
2023-03-29T12:32:46.473Z,20.6220
2023-03-29T12:33:46.883Z,20.6509
2023-03-29T12:34:47.226Z,20.6963
2023-03-29T12:35:47.535Z,20.7628
2023-03-29T12:36:47.902Z,20.8619
2023-03-29T12:37:48.140Z,20.9664
2023-03-29T12:38:48.486Z,21.0777
2023-03-29T12:39:48.898Z,21.2113
2023-03-29T12:40:49.260Z,21.3599
2023-03-29T12:41:49.584Z,21.5293
2023-03-29T12:42:49.858Z,21.7478
2023-03-29T12:43:50.317Z,22.0103
2023-03-29T12:44:50.866Z,22.3005
2023-03-29T12:45:51.187Z,22.5805
2023-03-29T12:46:52.293Z,22.7776
2023-03-29T12:47:52.763Z,22.8963
2023-03-29T12:48:53.207Z,23.1286
2023-03-29T12:49:53.825Z,23.6176
2023-03-29T12:50:54.051Z,24.2844
2023-03-29T12:51:54.454Z,24.8879
2023-03-29T12:52:54.923Z,25.3802
2023-03-29T12:53:55.115Z,25.7914
2023-03-29T12:54:55.465Z,26.0510
2023-03-29T12:55:55.921Z,26.0095
2023-03-29T12:56:56.685Z,25.8762
2023-03-29T12:57:57.024Z,25.7498
2023-03-29T12:58:57.241Z,25.6469
2023-03-29T12:59:57.662Z,25.3751
2023-03-29T13:00:58.210Z,25.1226
2023-03-29T13:01:58.917Z,24.9250
2023-03-29T13:02:59.540Z,24.9056
2023-03-29T13:04:00.268Z,24.8105
2023-03-29T13:05:00.815Z,24.5410
2023-03-29T13:06:01.847Z,24.2544
2023-03-29T13:07:01.793Z,24.0569
2023-03-29T13:08:02.223Z,23.9093
2023-03-29T13:09:02.768Z,23.9934
2023-03-29T13:10:03.330Z,24.4759
2023-03-29T13:11:03.976Z,25.0614
2023-03-29T13:12:04.454Z,25.5672
2023-03-29T13:13:04.962Z,25.8340
2023-03-29T13:14:05.302Z,25.8428